sensor_id;sensor_type;location;lat;lon;timestamp;P1;durP1;ratioP1;P2;durP2;ratioP2
83747;SDS011;73737;52.364;17.120;2024-03-02T00:00:52;82.00;;;40.80;;
83747;SDS011;73737;52.364;17.120;2024-03-02T00:03:46;72.50;;;36.20;;
83747;SDS011;73737;52.364;17.120;2024-03-02T00:06:15;71.00;;;33.20;;
83747;SDS011;73737;52.364;17.120;2024-03-02T00:08:46;66.90;;;33.30;;
83747;SDS011;73737;52.364;17.120;2024-03-02T00:11:15;82.00;;;40.50;;
83747;SDS011;73737;52.364;17.120;2024-03-02T00:13:44;75.40;;;38.80;;
83747;SDS011;73737;52.364;17.120;2024-03-02T00:16:14;66.80;;;35.70;;
83747;SDS011;73737;52.364;17.120;2024-03-02T00:18:44;70.80;;;37.00;;
83747;SDS011;73737;52.364;17.120;2024-03-02T00:21:12;73.10;;;35.10;;
83747;SDS011;73737;52.364;17.120;2024-03-02T00:23:42;76.30;;;36.50;;
83747;SDS011;73737;52.364;17.120;2024-03-02T00:26:11;83.10;;;41.30;;
83747;SDS011;73737;52.364;17.120;2024-03-02T00:28:41;79.60;;;42.30;;
83747;SDS011;73737;52.364;17.120;2024-03-02T00:31:12;80.80;;;37.40;;
83747;SDS011;73737;52.364;17.120;2024-03-02T00:33:45;75.60;;;36.70;;
83747;SDS011;73737;52.364;17.120;2024-03-02T00:36:15;76.10;;;37.80;;
83747;SDS011;73737;52.364;17.120;2024-03-02T00:38:46;77.60;;;39.50;;
83747;SDS011;73737;52.364;17.120;2024-03-02T00:41:24;69.70;;;35.60;;
83747;SDS011;73737;52.364;17.120;2024-03-02T00:43:58;73.60;;;38.20;;
83747;SDS011;73737;52.364;17.120;2024-03-02T00:49:04;73.80;;;38.70;;
83747;SDS011;73737;52.364;17.120;2024-03-02T00:51:35;81.80;;;42.10;;
83747;SDS011;73737;52.364;17.120;2024-03-02T00:54:05;71.60;;;34.70;;
83747;SDS011;73737;52.364;17.120;2024-03-02T00:56:36;67.50;;;32.60;;
83747;SDS011;73737;52.364;17.120;2024-03-02T00:59:04;78.10;;;36.30;;
83747;SDS011;73737;52.364;17.120;2024-03-02T01:01:33;80.50;;;39.20;;
83747;SDS011;73737;52.364;17.120;2024-03-02T01:04:02;73.20;;;36.70;;
83747;SDS011;73737;52.364;17.120;2024-03-02T01:06:30;79.00;;;37.10;;
83747;SDS011;73737;52.364;17.120;2024-03-02T01:08:59;80.70;;;40.40;;
83747;SDS011;73737;52.364;17.120;2024-03-02T01:11:28;82.40;;;39.00;;
83747;SDS011;73737;52.364;17.120;2024-03-02T01:13:56;69.20;;;36.00;;
83747;SDS011;73737;52.364;17.120;2024-03-02T01:16:25;67.60;;;34.30;;
83747;SDS011;73737;52.364;17.120;2024-03-02T01:18:53;68.50;;;33.10;;
83747;SDS011;73737;52.364;17.120;2024-03-02T01:21:22;71.30;;;35.50;;
83747;SDS011;73737;52.364;17.120;2024-03-02T01:23:51;57.50;;;28.60;;
83747;SDS011;73737;52.364;17.120;2024-03-02T01:26:19;74.30;;;38.40;;
83747;SDS011;73737;52.364;17.120;2024-03-02T01:28:48;75.40;;;36.60;;
83747;SDS011;73737;52.364;17.120;2024-03-02T01:31:17;78.40;;;37.60;;
83747;SDS011;73737;52.364;17.120;2024-03-02T01:33:45;71.30;;;36.80;;
83747;SDS011;73737;52.364;17.120;2024-03-02T01:36:14;67.70;;;32.20;;
83747;SDS011;73737;52.364;17.120;2024-03-02T01:38:42;65.90;;;32.20;;
83747;SDS011;73737;52.364;17.120;2024-03-02T01:41:11;66.20;;;32.40;;
83747;SDS011;73737;52.364;17.120;2024-03-02T01:43:40;64.30;;;33.50;;
83747;SDS011;73737;52.364;17.120;2024-03-02T01:46:08;65.80;;;33.70;;
83747;SDS011;73737;52.364;17.120;2024-03-02T01:48:37;65.90;;;33.00;;
83747;SDS011;73737;52.364;17.120;2024-03-02T01:51:06;68.90;;;33.60;;
83747;SDS011;73737;52.364;17.120;2024-03-02T01:53:34;71.60;;;35.10;;
83747;SDS011;73737;52.364;17.120;2024-03-02T01:56:03;63.50;;;29.00;;
83747;SDS011;73737;52.364;17.120;2024-03-02T01:58:32;68.40;;;34.90;;
83747;SDS011;73737;52.364;17.120;2024-03-02T02:01:01;67.80;;;32.70;;
83747;SDS011;73737;52.364;17.120;2024-03-02T02:03:29;63.50;;;29.50;;
83747;SDS011;73737;52.364;17.120;2024-03-02T02:05:57;69.60;;;33.00;;
83747;SDS011;73737;52.364;17.120;2024-03-02T02:08:27;57.70;;;29.00;;
83747;SDS011;73737;52.364;17.120;2024-03-02T02:10:56;62.80;;;31.80;;
83747;SDS011;73737;52.364;17.120;2024-03-02T02:13:24;62.30;;;33.40;;
83747;SDS011;73737;52.364;17.120;2024-03-02T02:15:53;72.60;;;32.50;;
83747;SDS011;73737;52.364;17.120;2024-03-02T02:18:21;59.70;;;31.20;;
83747;SDS011;73737;52.364;17.120;2024-03-02T02:20:50;66.40;;;32.80;;
83747;SDS011;73737;52.364;17.120;2024-03-02T02:23:18;61.10;;;29.70;;
83747;SDS011;73737;52.364;17.120;2024-03-02T02:25:47;54.40;;;25.60;;
83747;SDS011;73737;52.364;17.120;2024-03-02T02:28:15;67.50;;;32.40;;
83747;SDS011;73737;52.364;17.120;2024-03-02T02:30:44;68.30;;;33.50;;
83747;SDS011;73737;52.364;17.120;2024-03-02T02:33:13;60.00;;;28.80;;
83747;SDS011;73737;52.364;17.120;2024-03-02T02:35:42;65.30;;;32.40;;
83747;SDS011;73737;52.364;17.120;2024-03-02T02:38:10;63.10;;;30.30;;
83747;SDS011;73737;52.364;17.120;2024-03-02T02:40:39;60.80;;;30.30;;
83747;SDS011;73737;52.364;17.120;2024-03-02T02:43:08;63.80;;;31.20;;
83747;SDS011;73737;52.364;17.120;2024-03-02T02:45:39;66.70;;;31.00;;
83747;SDS011;73737;52.364;17.120;2024-03-02T02:48:07;44.10;;;24.70;;
83747;SDS011;73737;52.364;17.120;2024-03-02T02:50:36;60.00;;;29.10;;
83747;SDS011;73737;52.364;17.120;2024-03-02T02:53:05;60.90;;;29.00;;
83747;SDS011;73737;52.364;17.120;2024-03-02T02:55:35;71.30;;;33.30;;
83747;SDS011;73737;52.364;17.120;2024-03-02T02:58:11;54.40;;;26.40;;
83747;SDS011;73737;52.364;17.120;2024-03-02T03:00:40;61.20;;;30.10;;
83747;SDS011;73737;52.364;17.120;2024-03-02T03:03:08;54.30;;;27.50;;
83747;SDS011;73737;52.364;17.120;2024-03-02T03:05:37;48.50;;;24.40;;
83747;SDS011;73737;52.364;17.120;2024-03-02T03:08:06;58.40;;;29.90;;
83747;SDS011;73737;52.364;17.120;2024-03-02T03:10:35;62.40;;;29.90;;
83747;SDS011;73737;52.364;17.120;2024-03-02T03:13:03;71.10;;;34.10;;
83747;SDS011;73737;52.364;17.120;2024-03-02T03:15:32;63.00;;;30.80;;
83747;SDS011;73737;52.364;17.120;2024-03-02T03:18:00;60.30;;;29.70;;
83747;SDS011;73737;52.364;17.120;2024-03-02T03:20:29;63.20;;;31.40;;
83747;SDS011;73737;52.364;17.120;2024-03-02T03:22:58;66.60;;;29.80;;
83747;SDS011;73737;52.364;17.120;2024-03-02T03:25:27;60.00;;;29.40;;
83747;SDS011;73737;52.364;17.120;2024-03-02T03:27:55;59.30;;;30.80;;
83747;SDS011;73737;52.364;17.120;2024-03-02T03:30:25;63.20;;;31.20;;
83747;SDS011;73737;52.364;17.120;2024-03-02T03:32:53;60.40;;;29.00;;
83747;SDS011;73737;52.364;17.120;2024-03-02T03:35:22;52.10;;;26.00;;
83747;SDS011;73737;52.364;17.120;2024-03-02T03:37:50;60.00;;;30.90;;
83747;SDS011;73737;52.364;17.120;2024-03-02T03:40:19;52.10;;;27.10;;
83747;SDS011;73737;52.364;17.120;2024-03-02T03:42:48;55.80;;;25.90;;
83747;SDS011;73737;52.364;17.120;2024-03-02T03:45:18;58.50;;;30.10;;
83747;SDS011;73737;52.364;17.120;2024-03-02T03:47:48;54.70;;;28.30;;
83747;SDS011;73737;52.364;17.120;2024-03-02T03:50:16;60.20;;;29.10;;
83747;SDS011;73737;52.364;17.120;2024-03-02T03:52:45;54.20;;;28.10;;
83747;SDS011;73737;52.364;17.120;2024-03-02T03:55:13;61.20;;;30.00;;
83747;SDS011;73737;52.364;17.120;2024-03-02T03:57:42;57.10;;;27.70;;
83747;SDS011;73737;52.364;17.120;2024-03-02T04:00:11;62.40;;;29.70;;
83747;SDS011;73737;52.364;17.120;2024-03-02T04:02:43;57.40;;;26.90;;
83747;SDS011;73737;52.364;17.120;2024-03-02T04:05:11;60.60;;;29.60;;
83747;SDS011;73737;52.364;17.120;2024-03-02T04:07:40;56.70;;;28.50;;
83747;SDS011;73737;52.364;17.120;2024-03-02T04:10:09;60.60;;;30.30;;
83747;SDS011;73737;52.364;17.120;2024-03-02T04:12:38;47.80;;;25.20;;
83747;SDS011;73737;52.364;17.120;2024-03-02T04:15:07;47.00;;;23.50;;
83747;SDS011;73737;52.364;17.120;2024-03-02T04:17:36;56.50;;;28.60;;
83747;SDS011;73737;52.364;17.120;2024-03-02T04:20:05;52.40;;;24.50;;
83747;SDS011;73737;52.364;17.120;2024-03-02T04:22:34;52.60;;;27.60;;
83747;SDS011;73737;52.364;17.120;2024-03-02T04:25:04;55.50;;;30.40;;
83747;SDS011;73737;52.364;17.120;2024-03-02T04:27:32;59.70;;;29.80;;
83747;SDS011;73737;52.364;17.120;2024-03-02T04:30:04;59.20;;;28.90;;
83747;SDS011;73737;52.364;17.120;2024-03-02T04:32:33;66.00;;;31.30;;
83747;SDS011;73737;52.364;17.120;2024-03-02T04:35:04;65.80;;;31.70;;
83747;SDS011;73737;52.364;17.120;2024-03-02T04:37:36;60.60;;;28.10;;
83747;SDS011;73737;52.364;17.120;2024-03-02T04:40:05;60.10;;;28.40;;
83747;SDS011;73737;52.364;17.120;2024-03-02T04:42:37;56.90;;;29.10;;
83747;SDS011;73737;52.364;17.120;2024-03-02T04:45:05;62.70;;;28.30;;
83747;SDS011;73737;52.364;17.120;2024-03-02T04:47:35;55.50;;;26.90;;
83747;SDS011;73737;52.364;17.120;2024-03-02T04:50:04;55.90;;;27.60;;
83747;SDS011;73737;52.364;17.120;2024-03-02T04:52:33;55.00;;;28.80;;
83747;SDS011;73737;52.364;17.120;2024-03-02T04:55:01;59.30;;;28.30;;
83747;SDS011;73737;52.364;17.120;2024-03-02T04:57:52;58.90;;;29.10;;
83747;SDS011;73737;52.364;17.120;2024-03-02T05:00:23;54.10;;;27.90;;
83747;SDS011;73737;52.364;17.120;2024-03-02T05:02:51;58.10;;;28.50;;
83747;SDS011;73737;52.364;17.120;2024-03-02T05:05:20;54.90;;;27.60;;
83747;SDS011;73737;52.364;17.120;2024-03-02T05:07:48;58.40;;;28.10;;
83747;SDS011;73737;52.364;17.120;2024-03-02T05:10:17;49.10;;;24.30;;
83747;SDS011;73737;52.364;17.120;2024-03-02T05:12:46;62.00;;;28.40;;
83747;SDS011;73737;52.364;17.120;2024-03-02T05:15:14;49.20;;;26.10;;
83747;SDS011;73737;52.364;17.120;2024-03-02T05:17:43;57.80;;;28.60;;
83747;SDS011;73737;52.364;17.120;2024-03-02T05:20:12;59.80;;;29.40;;
83747;SDS011;73737;52.364;17.120;2024-03-02T05:22:40;52.20;;;27.00;;
83747;SDS011;73737;52.364;17.120;2024-03-02T05:25:09;59.90;;;31.60;;
83747;SDS011;73737;52.364;17.120;2024-03-02T05:27:38;59.40;;;27.30;;
83747;SDS011;73737;52.364;17.120;2024-03-02T05:30:07;56.50;;;27.00;;
83747;SDS011;73737;52.364;17.120;2024-03-02T05:32:37;55.00;;;27.20;;
83747;SDS011;73737;52.364;17.120;2024-03-02T05:35:05;48.90;;;26.30;;
83747;SDS011;73737;52.364;17.120;2024-03-02T05:37:34;49.40;;;27.20;;
83747;SDS011;73737;52.364;17.120;2024-03-02T05:40:03;56.10;;;26.60;;
83747;SDS011;73737;52.364;17.120;2024-03-02T05:42:33;42.20;;;21.50;;
83747;SDS011;73737;52.364;17.120;2024-03-02T05:45:02;51.50;;;25.00;;
83747;SDS011;73737;52.364;17.120;2024-03-02T05:47:31;45.60;;;22.30;;
83747;SDS011;73737;52.364;17.120;2024-03-02T05:50:01;51.50;;;28.20;;
83747;SDS011;73737;52.364;17.120;2024-03-02T05:52:31;58.20;;;28.90;;
83747;SDS011;73737;52.364;17.120;2024-03-02T05:55:00;56.10;;;27.00;;
83747;SDS011;73737;52.364;17.120;2024-03-02T05:57:29;52.50;;;27.10;;
83747;SDS011;73737;52.364;17.120;2024-03-02T06:00:13;49.30;;;24.10;;
83747;SDS011;73737;52.364;17.120;2024-03-02T06:02:45;47.50;;;24.20;;
83747;SDS011;73737;52.364;17.120;2024-03-02T06:05:14;57.30;;;29.20;;
83747;SDS011;73737;52.364;17.120;2024-03-02T06:07:44;55.60;;;28.60;;
83747;SDS011;73737;52.364;17.120;2024-03-02T06:10:12;53.60;;;28.00;;
83747;SDS011;73737;52.364;17.120;2024-03-02T06:12:41;52.70;;;27.20;;
83747;SDS011;73737;52.364;17.120;2024-03-02T06:15:09;54.60;;;28.50;;
83747;SDS011;73737;52.364;17.120;2024-03-02T06:17:39;55.60;;;28.60;;
83747;SDS011;73737;52.364;17.120;2024-03-02T06:20:08;57.40;;;28.10;;
83747;SDS011;73737;52.364;17.120;2024-03-02T06:22:37;53.00;;;27.10;;
83747;SDS011;73737;52.364;17.120;2024-03-02T06:25:05;56.70;;;28.10;;
83747;SDS011;73737;52.364;17.120;2024-03-02T06:27:34;55.00;;;25.90;;
83747;SDS011;73737;52.364;17.120;2024-03-02T06:30:03;50.90;;;27.10;;
83747;SDS011;73737;52.364;17.120;2024-03-02T06:32:32;51.60;;;25.00;;
83747;SDS011;73737;52.364;17.120;2024-03-02T06:35:01;50.90;;;25.80;;
83747;SDS011;73737;52.364;17.120;2024-03-02T06:37:32;47.00;;;24.80;;
83747;SDS011;73737;52.364;17.120;2024-03-02T06:40:00;50.20;;;25.40;;
83747;SDS011;73737;52.364;17.120;2024-03-02T06:42:29;52.10;;;27.30;;
83747;SDS011;73737;52.364;17.120;2024-03-02T06:45:01;46.80;;;23.50;;
83747;SDS011;73737;52.364;17.120;2024-03-02T06:47:31;47.90;;;25.10;;
83747;SDS011;73737;52.364;17.120;2024-03-02T06:49:59;51.00;;;27.40;;
83747;SDS011;73737;52.364;17.120;2024-03-02T06:52:28;53.00;;;26.80;;
83747;SDS011;73737;52.364;17.120;2024-03-02T06:54:56;49.40;;;25.20;;
83747;SDS011;73737;52.364;17.120;2024-03-02T06:57:25;54.60;;;26.80;;
83747;SDS011;73737;52.364;17.120;2024-03-02T06:59:54;54.30;;;28.50;;
83747;SDS011;73737;52.364;17.120;2024-03-02T07:02:26;50.40;;;25.40;;
83747;SDS011;73737;52.364;17.120;2024-03-02T07:04:55;48.10;;;25.40;;
83747;SDS011;73737;52.364;17.120;2024-03-02T07:07:24;47.80;;;24.00;;
83747;SDS011;73737;52.364;17.120;2024-03-02T07:09:53;48.20;;;26.50;;
83747;SDS011;73737;52.364;17.120;2024-03-02T07:12:22;50.60;;;26.00;;
83747;SDS011;73737;52.364;17.120;2024-03-02T07:14:51;47.20;;;25.30;;
83747;SDS011;73737;52.364;17.120;2024-03-02T07:17:31;55.40;;;27.30;;
83747;SDS011;73737;52.364;17.120;2024-03-02T07:20:00;43.60;;;23.10;;
83747;SDS011;73737;52.364;17.120;2024-03-02T07:22:29;44.20;;;25.30;;
83747;SDS011;73737;52.364;17.120;2024-03-02T07:24:57;48.50;;;24.60;;
83747;SDS011;73737;52.364;17.120;2024-03-02T07:27:26;47.90;;;25.70;;
83747;SDS011;73737;52.364;17.120;2024-03-02T07:29:55;45.60;;;26.30;;
83747;SDS011;73737;52.364;17.120;2024-03-02T22:16:41;72.80;;;37.30;;
83747;SDS011;73737;52.364;17.120;2024-03-02T22:19:19;65.40;;;33.30;;
83747;SDS011;73737;52.364;17.120;2024-03-02T22:21:48;70.60;;;36.70;;
83747;SDS011;73737;52.364;17.120;2024-03-02T22:24:18;68.70;;;33.80;;
83747;SDS011;73737;52.364;17.120;2024-03-02T22:26:50;70.30;;;34.90;;
83747;SDS011;73737;52.364;17.120;2024-03-02T22:29:20;64.90;;;31.60;;
83747;SDS011;73737;52.364;17.120;2024-03-02T22:31:55;66.40;;;30.00;;
83747;SDS011;73737;52.364;17.120;2024-03-02T22:34:24;63.20;;;32.90;;
83747;SDS011;73737;52.364;17.120;2024-03-02T22:36:54;72.90;;;33.60;;
83747;SDS011;73737;52.364;17.120;2024-03-02T22:39:23;74.60;;;34.90;;
83747;SDS011;73737;52.364;17.120;2024-03-02T22:41:56;69.80;;;33.30;;
83747;SDS011;73737;52.364;17.120;2024-03-02T22:44:29;71.70;;;32.80;;
83747;SDS011;73737;52.364;17.120;2024-03-02T22:46:58;63.80;;;32.60;;
83747;SDS011;73737;52.364;17.120;2024-03-02T22:49:29;63.30;;;33.30;;
83747;SDS011;73737;52.364;17.120;2024-03-02T22:52:01;70.20;;;34.50;;
83747;SDS011;73737;52.364;17.120;2024-03-02T22:54:34;75.10;;;35.80;;
83747;SDS011;73737;52.364;17.120;2024-03-02T22:57:03;67.80;;;31.10;;
83747;SDS011;73737;52.364;17.120;2024-03-02T22:59:35;69.80;;;36.10;;
83747;SDS011;73737;52.364;17.120;2024-03-02T23:02:13;67.10;;;31.30;;
83747;SDS011;73737;52.364;17.120;2024-03-02T23:04:48;70.20;;;32.40;;
83747;SDS011;73737;52.364;17.120;2024-03-02T23:07:18;68.90;;;34.20;;
83747;SDS011;73737;52.364;17.120;2024-03-02T23:09:50;70.10;;;33.30;;
83747;SDS011;73737;52.364;17.120;2024-03-02T23:12:21;62.00;;;30.70;;
83747;SDS011;73737;52.364;17.120;2024-03-02T23:14:51;66.10;;;32.90;;
83747;SDS011;73737;52.364;17.120;2024-03-02T23:17:20;64.00;;;31.90;;
83747;SDS011;73737;52.364;17.120;2024-03-02T23:19:55;63.60;;;30.10;;
83747;SDS011;73737;52.364;17.120;2024-03-02T23:22:27;65.00;;;30.20;;
83747;SDS011;73737;52.364;17.120;2024-03-02T23:25:04;72.60;;;33.90;;
83747;SDS011;73737;52.364;17.120;2024-03-02T23:27:37;69.60;;;34.30;;
83747;SDS011;73737;52.364;17.120;2024-03-02T23:30:07;67.30;;;33.00;;
83747;SDS011;73737;52.364;17.120;2024-03-02T23:32:37;66.10;;;33.60;;
83747;SDS011;73737;52.364;17.120;2024-03-02T23:35:08;66.70;;;32.00;;
83747;SDS011;73737;52.364;17.120;2024-03-02T23:37:37;66.60;;;32.60;;
83747;SDS011;73737;52.364;17.120;2024-03-02T23:40:06;67.20;;;31.50;;
83747;SDS011;73737;52.364;17.120;2024-03-02T23:42:48;70.20;;;33.20;;
83747;SDS011;73737;52.364;17.120;2024-03-02T23:45:17;64.30;;;33.20;;
83747;SDS011;73737;52.364;17.120;2024-03-02T23:47:46;70.80;;;32.60;;
83747;SDS011;73737;52.364;17.120;2024-03-02T23:50:15;65.60;;;31.70;;
83747;SDS011;73737;52.364;17.120;2024-03-02T23:52:43;63.20;;;29.00;;
83747;SDS011;73737;52.364;17.120;2024-03-02T23:55:12;73.40;;;32.00;;
83747;SDS011;73737;52.364;17.120;2024-03-02T23:57:41;66.20;;;31.50;;
